sensor_id;sensor_type;location;lat;lon;timestamp;P1;durP1;ratioP1;P2;durP2;ratioP2
1701;SDS011;848;48.354;10.064;2022-11-14T00:02:10;15.50;;;7.10;;
1701;SDS011;848;48.354;10.064;2022-11-14T00:04:37;18.83;;;8.75;;
1701;SDS011;848;48.354;10.064;2022-11-14T00:07:05;23.40;;;8.23;;
1701;SDS011;848;48.354;10.064;2022-11-14T00:09:32;19.95;;;8.68;;
1701;SDS011;848;48.354;10.064;2022-11-14T00:11:59;20.00;;;8.70;;
1701;SDS011;848;48.354;10.064;2022-11-14T00:14:26;19.98;;;8.30;;
1701;SDS011;848;48.354;10.064;2022-11-14T00:16:53;20.98;;;8.27;;
1701;SDS011;848;48.354;10.064;2022-11-14T00:19:20;20.20;;;9.02;;
1701;SDS011;848;48.354;10.064;2022-11-14T00:21:47;20.65;;;8.65;;
1701;SDS011;848;48.354;10.064;2022-11-14T00:24:15;16.70;;;7.78;;
1701;SDS011;848;48.354;10.064;2022-11-14T00:26:42;19.20;;;8.52;;
1701;SDS011;848;48.354;10.064;2022-11-14T00:29:09;18.33;;;8.00;;
1701;SDS011;848;48.354;10.064;2022-11-14T00:31:36;20.67;;;9.27;;
1701;SDS011;848;48.354;10.064;2022-11-14T00:34:03;19.98;;;9.15;;
1701;SDS011;848;48.354;10.064;2022-11-14T00:36:30;19.55;;;9.15;;
1701;SDS011;848;48.354;10.064;2022-11-14T00:38:57;20.10;;;8.75;;
1701;SDS011;848;48.354;10.064;2022-11-14T00:41:26;18.27;;;8.48;;
1701;SDS011;848;48.354;10.064;2022-11-14T00:43:53;20.30;;;8.52;;
1701;SDS011;848;48.354;10.064;2022-11-14T00:46:20;18.42;;;8.82;;
1701;SDS011;848;48.354;10.064;2022-11-14T00:48:46;20.05;;;9.02;;
1701;SDS011;848;48.354;10.064;2022-11-14T00:51:13;19.23;;;8.32;;
1701;SDS011;848;48.354;10.064;2022-11-14T00:53:40;20.00;;;9.07;;
1701;SDS011;848;48.354;10.064;2022-11-14T00:56:07;19.80;;;9.35;;
1701;SDS011;848;48.354;10.064;2022-11-14T00:58:36;21.00;;;9.23;;
1701;SDS011;848;48.354;10.064;2022-11-14T01:01:03;17.73;;;8.27;;
1701;SDS011;848;48.354;10.064;2022-11-14T01:03:30;20.33;;;8.88;;
1701;SDS011;848;48.354;10.064;2022-11-14T01:05:57;20.38;;;8.50;;
1701;SDS011;848;48.354;10.064;2022-11-14T01:08:29;20.77;;;9.40;;
1701;SDS011;848;48.354;10.064;2022-11-14T01:10:56;20.25;;;8.90;;
1701;SDS011;848;48.354;10.064;2022-11-14T01:13:24;18.30;;;7.70;;
1701;SDS011;848;48.354;10.064;2022-11-14T01:15:53;22.75;;;9.95;;
1701;SDS011;848;48.354;10.064;2022-11-14T01:18:20;20.27;;;10.05;;
1701;SDS011;848;48.354;10.064;2022-11-14T01:20:47;19.70;;;8.65;;
1701;SDS011;848;48.354;10.064;2022-11-14T01:23:15;20.23;;;8.90;;
1701;SDS011;848;48.354;10.064;2022-11-14T01:25:42;21.15;;;9.75;;
1701;SDS011;848;48.354;10.064;2022-11-14T01:28:10;17.95;;;8.27;;
1701;SDS011;848;48.354;10.064;2022-11-14T01:30:40;19.88;;;9.82;;
1701;SDS011;848;48.354;10.064;2022-11-14T01:33:10;20.38;;;9.10;;
1701;SDS011;848;48.354;10.064;2022-11-14T01:35:37;22.58;;;9.23;;
1701;SDS011;848;48.354;10.064;2022-11-14T01:38:04;19.20;;;8.68;;
1701;SDS011;848;48.354;10.064;2022-11-14T01:40:32;18.85;;;8.70;;
1701;SDS011;848;48.354;10.064;2022-11-14T01:43:15;19.65;;;8.75;;
1701;SDS011;848;48.354;10.064;2022-11-14T01:45:55;22.00;;;8.75;;
1701;SDS011;848;48.354;10.064;2022-11-14T01:48:27;21.20;;;9.63;;
1701;SDS011;848;48.354;10.064;2022-11-14T01:50:59;17.27;;;8.13;;
1701;SDS011;848;48.354;10.064;2022-11-14T01:53:29;19.75;;;8.82;;
1701;SDS011;848;48.354;10.064;2022-11-14T01:55:57;18.08;;;8.07;;
1701;SDS011;848;48.354;10.064;2022-11-14T01:58:27;21.00;;;9.25;;
1701;SDS011;848;48.354;10.064;2022-11-14T02:00:54;20.27;;;8.52;;
1701;SDS011;848;48.354;10.064;2022-11-14T02:03:22;18.48;;;7.70;;
1701;SDS011;848;48.354;10.064;2022-11-14T02:05:51;20.08;;;8.52;;
1701;SDS011;848;48.354;10.064;2022-11-14T02:08:18;16.67;;;7.78;;
1701;SDS011;848;48.354;10.064;2022-11-14T02:10:46;19.98;;;8.40;;
1701;SDS011;848;48.354;10.064;2022-11-14T02:13:13;18.63;;;8.73;;
1701;SDS011;848;48.354;10.064;2022-11-14T02:15:40;19.80;;;7.53;;
1701;SDS011;848;48.354;10.064;2022-11-14T02:18:07;19.17;;;8.80;;
1701;SDS011;848;48.354;10.064;2022-11-14T02:20:36;19.25;;;7.60;;
1701;SDS011;848;48.354;10.064;2022-11-14T02:23:07;22.05;;;9.23;;
1701;SDS011;848;48.354;10.064;2022-11-14T02:25:36;21.42;;;8.50;;
1701;SDS011;848;48.354;10.064;2022-11-14T02:28:03;21.58;;;8.50;;
1701;SDS011;848;48.354;10.064;2022-11-14T02:30:32;21.38;;;9.63;;
1701;SDS011;848;48.354;10.064;2022-11-14T02:32:59;19.98;;;8.93;;
1701;SDS011;848;48.354;10.064;2022-11-14T02:35:29;20.98;;;8.35;;
1701;SDS011;848;48.354;10.064;2022-11-14T02:38:06;19.35;;;8.45;;
1701;SDS011;848;48.354;10.064;2022-11-14T02:40:33;20.10;;;8.38;;
1701;SDS011;848;48.354;10.064;2022-11-14T02:43:00;19.23;;;8.32;;
1701;SDS011;848;48.354;10.064;2022-11-14T02:45:27;20.52;;;8.82;;
1701;SDS011;848;48.354;10.064;2022-11-14T02:47:54;18.75;;;8.48;;
1701;SDS011;848;48.354;10.064;2022-11-14T02:50:21;20.00;;;8.52;;
1701;SDS011;848;48.354;10.064;2022-11-14T02:52:48;18.75;;;8.45;;
1701;SDS011;848;48.354;10.064;2022-11-14T02:55:17;18.13;;;7.47;;
1701;SDS011;848;48.354;10.064;2022-11-14T02:57:44;19.65;;;7.82;;
1701;SDS011;848;48.354;10.064;2022-11-14T03:00:11;18.85;;;8.45;;
1701;SDS011;848;48.354;10.064;2022-11-14T03:02:39;17.33;;;7.53;;
1701;SDS011;848;48.354;10.064;2022-11-14T03:05:06;19.55;;;8.32;;
1701;SDS011;848;48.354;10.064;2022-11-14T03:07:33;16.73;;;7.50;;
1701;SDS011;848;48.354;10.064;2022-11-14T03:10:00;19.48;;;8.25;;
1701;SDS011;848;48.354;10.064;2022-11-14T03:12:28;18.73;;;8.57;;
1701;SDS011;848;48.354;10.064;2022-11-14T03:14:55;19.40;;;8.80;;
1701;SDS011;848;48.354;10.064;2022-11-14T03:17:22;18.90;;;7.85;;
1701;SDS011;848;48.354;10.064;2022-11-14T03:19:49;16.95;;;6.93;;
1701;SDS011;848;48.354;10.064;2022-11-14T03:22:16;19.20;;;7.93;;
1701;SDS011;848;48.354;10.064;2022-11-14T03:24:43;20.10;;;7.30;;
1701;SDS011;848;48.354;10.064;2022-11-14T03:27:10;19.55;;;8.38;;
1701;SDS011;848;48.354;10.064;2022-11-14T03:29:38;17.50;;;8.23;;
1701;SDS011;848;48.354;10.064;2022-11-14T03:32:05;21.35;;;8.57;;
1701;SDS011;848;48.354;10.064;2022-11-14T03:34:32;18.35;;;8.95;;
1701;SDS011;848;48.354;10.064;2022-11-14T03:36:59;19.92;;;8.93;;
1701;SDS011;848;48.354;10.064;2022-11-14T03:39:26;20.13;;;9.18;;
1701;SDS011;848;48.354;10.064;2022-11-14T03:41:53;16.52;;;7.43;;
1701;SDS011;848;48.354;10.064;2022-11-14T03:44:20;22.27;;;9.00;;
1701;SDS011;848;48.354;10.064;2022-11-14T03:46:52;21.52;;;9.23;;
1701;SDS011;848;48.354;10.064;2022-11-14T03:49:18;21.45;;;8.93;;
1701;SDS011;848;48.354;10.064;2022-11-14T03:51:46;20.08;;;8.88;;
1701;SDS011;848;48.354;10.064;2022-11-14T03:54:16;18.60;;;8.02;;
1701;SDS011;848;48.354;10.064;2022-11-14T03:56:43;17.83;;;7.93;;
1701;SDS011;848;48.354;10.064;2022-11-14T03:59:10;17.80;;;7.78;;
1701;SDS011;848;48.354;10.064;2022-11-14T04:01:37;20.08;;;8.75;;
1701;SDS011;848;48.354;10.064;2022-11-14T04:04:05;20.70;;;9.60;;
1701;SDS011;848;48.354;10.064;2022-11-14T04:06:38;18.10;;;8.02;;
1701;SDS011;848;48.354;10.064;2022-11-14T04:09:05;20.40;;;9.13;;
1701;SDS011;848;48.354;10.064;2022-11-14T04:11:32;23.08;;;10.07;;
1701;SDS011;848;48.354;10.064;2022-11-14T04:13:58;19.55;;;9.05;;
1701;SDS011;848;48.354;10.064;2022-11-14T04:16:25;19.33;;;9.32;;
1701;SDS011;848;48.354;10.064;2022-11-14T04:18:52;21.98;;;8.73;;
1701;SDS011;848;48.354;10.064;2022-11-14T04:21:20;18.75;;;9.48;;
1701;SDS011;848;48.354;10.064;2022-11-14T04:23:47;20.90;;;9.00;;
1701;SDS011;848;48.354;10.064;2022-11-14T04:26:14;22.17;;;9.63;;
1701;SDS011;848;48.354;10.064;2022-11-14T04:28:41;22.83;;;9.52;;
1701;SDS011;848;48.354;10.064;2022-11-14T04:31:08;22.40;;;9.82;;
1701;SDS011;848;48.354;10.064;2022-11-14T04:33:35;27.63;;;8.93;;
1701;SDS011;848;48.354;10.064;2022-11-14T04:36:06;22.92;;;10.30;;
1701;SDS011;848;48.354;10.064;2022-11-14T04:38:35;21.55;;;9.43;;
1701;SDS011;848;48.354;10.064;2022-11-14T04:41:03;21.23;;;9.60;;
1701;SDS011;848;48.354;10.064;2022-11-14T04:43:30;25.98;;;10.88;;
1701;SDS011;848;48.354;10.064;2022-11-14T04:45:57;20.58;;;9.57;;
1701;SDS011;848;48.354;10.064;2022-11-14T04:48:24;24.35;;;11.05;;
1701;SDS011;848;48.354;10.064;2022-11-14T04:50:51;48.15;;;28.45;;
1701;SDS011;848;48.354;10.064;2022-11-14T04:53:17;26.38;;;12.57;;
1701;SDS011;848;48.354;10.064;2022-11-14T04:55:46;21.35;;;9.70;;
1701;SDS011;848;48.354;10.064;2022-11-14T04:58:13;21.90;;;10.13;;
1701;SDS011;848;48.354;10.064;2022-11-14T05:00:40;23.77;;;9.98;;
1701;SDS011;848;48.354;10.064;2022-11-14T05:03:07;24.05;;;11.18;;
1701;SDS011;848;48.354;10.064;2022-11-14T05:05:34;26.45;;;12.32;;
1701;SDS011;848;48.354;10.064;2022-11-14T05:08:01;39.83;;;17.02;;
1701;SDS011;848;48.354;10.064;2022-11-14T05:10:28;23.75;;;11.35;;
1701;SDS011;848;48.354;10.064;2022-11-14T05:12:56;24.23;;;10.38;;
1701;SDS011;848;48.354;10.064;2022-11-14T05:15:23;27.00;;;11.43;;
1701;SDS011;848;48.354;10.064;2022-11-14T05:17:50;24.58;;;11.27;;
1701;SDS011;848;48.354;10.064;2022-11-14T05:20:17;25.40;;;12.63;;
1701;SDS011;848;48.354;10.064;2022-11-14T05:22:44;33.28;;;18.98;;
1701;SDS011;848;48.354;10.064;2022-11-14T05:25:11;27.50;;;12.27;;
1701;SDS011;848;48.354;10.064;2022-11-14T05:27:38;22.48;;;10.00;;
1701;SDS011;848;48.354;10.064;2022-11-14T05:30:07;25.90;;;11.57;;
1701;SDS011;848;48.354;10.064;2022-11-14T05:32:35;26.17;;;11.70;;
1701;SDS011;848;48.354;10.064;2022-11-14T05:35:02;28.63;;;11.82;;
1701;SDS011;848;48.354;10.064;2022-11-14T05:37:29;24.80;;;11.73;;
1701;SDS011;848;48.354;10.064;2022-11-14T05:39:56;23.67;;;10.90;;
1701;SDS011;848;48.354;10.064;2022-11-14T05:42:26;22.33;;;9.38;;
1701;SDS011;848;48.354;10.064;2022-11-14T05:44:53;23.83;;;11.00;;
1701;SDS011;848;48.354;10.064;2022-11-14T05:47:21;24.35;;;10.40;;
1701;SDS011;848;48.354;10.064;2022-11-14T05:49:48;24.30;;;10.05;;
1701;SDS011;848;48.354;10.064;2022-11-14T05:52:15;25.00;;;11.90;;
1701;SDS011;848;48.354;10.064;2022-11-14T05:54:42;22.58;;;9.43;;
1701;SDS011;848;48.354;10.064;2022-11-14T05:57:09;27.58;;;11.48;;
1701;SDS011;848;48.354;10.064;2022-11-14T05:59:36;26.33;;;11.63;;
1701;SDS011;848;48.354;10.064;2022-11-14T06:02:03;25.77;;;11.60;;
1701;SDS011;848;48.354;10.064;2022-11-14T06:04:31;26.30;;;11.70;;
1701;SDS011;848;48.354;10.064;2022-11-14T06:06:58;36.05;;;16.00;;
1701;SDS011;848;48.354;10.064;2022-11-14T06:09:25;24.30;;;11.32;;
1701;SDS011;848;48.354;10.064;2022-11-14T06:11:52;25.88;;;11.88;;
1701;SDS011;848;48.354;10.064;2022-11-14T06:14:19;23.15;;;10.82;;
1701;SDS011;848;48.354;10.064;2022-11-14T06:16:45;30.35;;;12.73;;
1701;SDS011;848;48.354;10.064;2022-11-14T06:19:12;26.50;;;11.43;;
1701;SDS011;848;48.354;10.064;2022-11-14T06:21:41;21.05;;;9.63;;
1701;SDS011;848;48.354;10.064;2022-11-14T06:24:07;26.65;;;10.88;;
1701;SDS011;848;48.354;10.064;2022-11-14T06:26:34;27.83;;;12.55;;
1701;SDS011;848;48.354;10.064;2022-11-14T06:29:01;23.85;;;11.20;;
1701;SDS011;848;48.354;10.064;2022-11-14T06:31:28;24.73;;;11.02;;
1701;SDS011;848;48.354;10.064;2022-11-14T06:33:55;21.83;;;10.07;;
1701;SDS011;848;48.354;10.064;2022-11-14T06:36:22;27.80;;;12.10;;
1701;SDS011;848;48.354;10.064;2022-11-14T06:38:50;27.23;;;12.65;;
1701;SDS011;848;48.354;10.064;2022-11-14T06:41:18;26.05;;;11.98;;
1701;SDS011;848;48.354;10.064;2022-11-14T06:43:47;25.55;;;12.07;;
1701;SDS011;848;48.354;10.064;2022-11-14T06:46:16;25.67;;;11.90;;
1701;SDS011;848;48.354;10.064;2022-11-14T06:48:44;21.40;;;10.60;;
1701;SDS011;848;48.354;10.064;2022-11-14T06:51:13;23.73;;;11.80;;
1701;SDS011;848;48.354;10.064;2022-11-14T06:53:41;22.90;;;11.30;;
1701;SDS011;848;48.354;10.064;2022-11-14T06:56:10;24.20;;;11.18;;
1701;SDS011;848;48.354;10.064;2022-11-14T06:58:39;24.77;;;10.85;;
1701;SDS011;848;48.354;10.064;2022-11-14T07:01:07;27.77;;;12.57;;
1701;SDS011;848;48.354;10.064;2022-11-14T07:03:36;25.50;;;11.80;;
1701;SDS011;848;48.354;10.064;2022-11-14T07:06:04;23.13;;;11.95;;
1701;SDS011;848;48.354;10.064;2022-11-14T07:08:31;23.80;;;10.73;;
1701;SDS011;848;48.354;10.064;2022-11-14T07:11:02;24.20;;;11.40;;
1701;SDS011;848;48.354;10.064;2022-11-14T07:13:31;26.92;;;11.43;;
1701;SDS011;848;48.354;10.064;2022-11-14T07:15:59;26.63;;;11.90;;
1701;SDS011;848;48.354;10.064;2022-11-14T07:18:28;26.45;;;10.90;;
1701;SDS011;848;48.354;10.064;2022-11-14T07:20:56;22.95;;;11.13;;
1701;SDS011;848;48.354;10.064;2022-11-14T07:23:24;29.25;;;14.50;;
1701;SDS011;848;48.354;10.064;2022-11-14T07:25:51;27.13;;;12.57;;
1701;SDS011;848;48.354;10.064;2022-11-14T07:28:18;27.80;;;13.55;;
1701;SDS011;848;48.354;10.064;2022-11-14T07:30:46;25.25;;;11.13;;
1701;SDS011;848;48.354;10.064;2022-11-14T07:33:13;26.13;;;11.57;;
1701;SDS011;848;48.354;10.064;2022-11-14T07:35:40;24.70;;;11.68;;
1701;SDS011;848;48.354;10.064;2022-11-14T07:38:23;25.40;;;11.60;;
1701;SDS011;848;48.354;10.064;2022-11-14T07:40:54;22.83;;;11.10;;
1701;SDS011;848;48.354;10.064;2022-11-14T07:43:22;27.08;;;12.05;;
1701;SDS011;848;48.354;10.064;2022-11-14T07:45:49;26.10;;;12.15;;
1701;SDS011;848;48.354;10.064;2022-11-14T07:48:16;22.63;;;10.60;;
1701;SDS011;848;48.354;10.064;2022-11-14T07:50:45;22.58;;;10.95;;
1701;SDS011;848;48.354;10.064;2022-11-14T07:53:12;24.98;;;10.85;;
1701;SDS011;848;48.354;10.064;2022-11-14T07:55:43;23.88;;;11.48;;
1701;SDS011;848;48.354;10.064;2022-11-14T07:58:10;19.80;;;10.32;;
1701;SDS011;848;48.354;10.064;2022-11-14T08:00:37;22.88;;;10.27;;
1701;SDS011;848;48.354;10.064;2022-11-14T08:03:05;24.27;;;11.45;;
1701;SDS011;848;48.354;10.064;2022-11-14T08:05:32;24.02;;;10.77;;
1701;SDS011;848;48.354;10.064;2022-11-14T08:07:59;27.40;;;12.38;;
1701;SDS011;848;48.354;10.064;2022-11-14T08:10:25;26.27;;;12.30;;
1701;SDS011;848;48.354;10.064;2022-11-14T08:12:57;25.85;;;11.70;;
1701;SDS011;848;48.354;10.064;2022-11-14T08:15:25;22.55;;;10.93;;
1701;SDS011;848;48.354;10.064;2022-11-14T08:17:55;29.52;;;11.82;;
1701;SDS011;848;48.354;10.064;2022-11-14T08:20:23;21.67;;;10.27;;
1701;SDS011;848;48.354;10.064;2022-11-14T08:22:50;24.00;;;11.80;;
1701;SDS011;848;48.354;10.064;2022-11-14T08:25:17;22.90;;;10.20;;
1701;SDS011;848;48.354;10.064;2022-11-14T08:27:44;29.27;;;11.25;;
1701;SDS011;848;48.354;10.064;2022-11-14T08:30:13;25.10;;;11.10;;
1701;SDS011;848;48.354;10.064;2022-11-14T08:32:40;24.52;;;10.18;;
1701;SDS011;848;48.354;10.064;2022-11-14T08:35:06;22.98;;;10.00;;
1701;SDS011;848;48.354;10.064;2022-11-14T08:37:33;22.45;;;10.60;;
1701;SDS011;848;48.354;10.064;2022-11-14T08:40:00;21.08;;;9.85;;
1701;SDS011;848;48.354;10.064;2022-11-14T08:42:27;23.90;;;12.20;;
1701;SDS011;848;48.354;10.064;2022-11-14T08:44:56;20.98;;;10.50;;
1701;SDS011;848;48.354;10.064;2022-11-14T08:47:24;23.08;;;9.98;;
1701;SDS011;848;48.354;10.064;2022-11-14T08:49:51;27.00;;;12.63;;
1701;SDS011;848;48.354;10.064;2022-11-14T08:52:18;22.60;;;10.35;;
1701;SDS011;848;48.354;10.064;2022-11-14T08:54:46;22.55;;;10.65;;
1701;SDS011;848;48.354;10.064;2022-11-14T08:57:13;23.25;;;10.95;;
1701;SDS011;848;48.354;10.064;2022-11-14T08:59:40;24.58;;;11.73;;
1701;SDS011;848;48.354;10.064;2022-11-14T09:02:08;25.02;;;11.50;;
1701;SDS011;848;48.354;10.064;2022-11-14T09:04:37;22.10;;;9.77;;
1701;SDS011;848;48.354;10.064;2022-11-14T09:07:03;21.67;;;11.30;;
1701;SDS011;848;48.354;10.064;2022-11-14T09:09:31;20.17;;;10.32;;
1701;SDS011;848;48.354;10.064;2022-11-14T09:11:57;23.25;;;10.45;;
1701;SDS011;848;48.354;10.064;2022-11-14T09:14:24;21.20;;;10.50;;
1701;SDS011;848;48.354;10.064;2022-11-14T09:16:51;23.13;;;11.32;;
1701;SDS011;848;48.354;10.064;2022-11-14T09:19:18;21.90;;;11.52;;
1701;SDS011;848;48.354;10.064;2022-11-14T09:21:47;20.15;;;10.27;;
1701;SDS011;848;48.354;10.064;2022-11-14T09:24:13;23.60;;;11.07;;
1701;SDS011;848;48.354;10.064;2022-11-14T09:26:40;26.42;;;12.32;;
1701;SDS011;848;48.354;10.064;2022-11-14T09:29:07;21.55;;;9.93;;
1701;SDS011;848;48.354;10.064;2022-11-14T09:31:34;23.20;;;10.65;;
1701;SDS011;848;48.354;10.064;2022-11-14T09:34:01;23.70;;;11.20;;
1701;SDS011;848;48.354;10.064;2022-11-14T09:36:28;23.40;;;11.07;;
1701;SDS011;848;48.354;10.064;2022-11-14T09:38:56;30.80;;;12.60;;
1701;SDS011;848;48.354;10.064;2022-11-14T09:41:23;24.45;;;13.13;;
1701;SDS011;848;48.354;10.064;2022-11-14T09:44:03;21.48;;;11.38;;
1701;SDS011;848;48.354;10.064;2022-11-14T09:46:47;25.35;;;12.90;;
1701;SDS011;848;48.354;10.064;2022-11-14T09:49:22;26.95;;;12.50;;
1701;SDS011;848;48.354;10.064;2022-11-14T09:54:31;24.60;;;12.23;;
1701;SDS011;848;48.354;10.064;2022-11-14T09:57:08;21.98;;;11.35;;
1701;SDS011;848;48.354;10.064;2022-11-14T09:59:40;21.52;;;10.75;;
1701;SDS011;848;48.354;10.064;2022-11-14T10:02:13;25.10;;;11.45;;
1701;SDS011;848;48.354;10.064;2022-11-14T10:04:49;22.67;;;10.88;;
1701;SDS011;848;48.354;10.064;2022-11-14T10:07:30;21.73;;;11.13;;
1701;SDS011;848;48.354;10.064;2022-11-14T10:10:09;23.27;;;11.40;;
1701;SDS011;848;48.354;10.064;2022-11-14T10:12:54;29.67;;;13.20;;
1701;SDS011;848;48.354;10.064;2022-11-14T10:15:27;25.55;;;10.65;;
1701;SDS011;848;48.354;10.064;2022-11-14T10:18:02;24.58;;;10.52;;
1701;SDS011;848;48.354;10.064;2022-11-14T10:20:38;24.90;;;10.00;;
1701;SDS011;848;48.354;10.064;2022-11-14T10:23:15;23.80;;;10.43;;
1701;SDS011;848;48.354;10.064;2022-11-14T10:25:54;32.80;;;15.05;;
1701;SDS011;848;48.354;10.064;2022-11-14T10:28:38;22.00;;;9.50;;
1701;SDS011;848;48.354;10.064;2022-11-14T10:31:15;22.45;;;10.20;;
1701;SDS011;848;48.354;10.064;2022-11-14T10:33:49;20.20;;;8.20;;
1701;SDS011;848;48.354;10.064;2022-11-14T10:36:25;21.40;;;8.52;;
1701;SDS011;848;48.354;10.064;2022-11-14T10:39:12;20.48;;;10.10;;
1701;SDS011;848;48.354;10.064;2022-11-14T10:41:46;20.67;;;9.05;;
1701;SDS011;848;48.354;10.064;2022-11-14T10:44:17;22.35;;;10.27;;
1701;SDS011;848;48.354;10.064;2022-11-14T10:46:50;18.58;;;8.07;;
1701;SDS011;848;48.354;10.064;2022-11-14T10:49:22;20.48;;;9.25;;
1701;SDS011;848;48.354;10.064;2022-11-14T10:51:50;19.92;;;9.07;;
1701;SDS011;848;48.354;10.064;2022-11-14T10:54:20;21.50;;;9.38;;
1701;SDS011;848;48.354;10.064;2022-11-14T10:56:53;20.73;;;8.30;;
1701;SDS011;848;48.354;10.064;2022-11-14T10:59:21;18.58;;;8.50;;
1701;SDS011;848;48.354;10.064;2022-11-14T11:01:52;20.05;;;8.38;;
1701;SDS011;848;48.354;10.064;2022-11-14T11:04:21;20.80;;;9.07;;
1701;SDS011;848;48.354;10.064;2022-11-14T11:06:52;22.00;;;8.90;;
1701;SDS011;848;48.354;10.064;2022-11-14T11:09:21;14.95;;;5.78;;
1701;SDS011;848;48.354;10.064;2022-11-14T11:12:08;14.77;;;5.20;;
1701;SDS011;848;48.354;10.064;2022-11-14T11:14:41;15.30;;;4.88;;
1701;SDS011;848;48.354;10.064;2022-11-14T11:17:19;14.20;;;4.90;;
1701;SDS011;848;48.354;10.064;2022-11-14T11:19:48;16.15;;;5.32;;
1701;SDS011;848;48.354;10.064;2022-11-14T11:22:22;16.65;;;4.60;;
1701;SDS011;848;48.354;10.064;2022-11-14T11:24:54;13.25;;;4.28;;
1701;SDS011;848;48.354;10.064;2022-11-14T11:27:23;12.85;;;3.50;;
1701;SDS011;848;48.354;10.064;2022-11-14T11:30:02;11.50;;;3.15;;
1701;SDS011;848;48.354;10.064;2022-11-14T11:32:32;12.48;;;3.63;;
1701;SDS011;848;48.354;10.064;2022-11-14T11:35:00;13.13;;;2.92;;
1701;SDS011;848;48.354;10.064;2022-11-14T11:37:29;11.25;;;2.78;;
1701;SDS011;848;48.354;10.064;2022-11-14T11:40:00;12.35;;;3.83;;
1701;SDS011;848;48.354;10.064;2022-11-14T11:42:32;10.20;;;2.20;;
1701;SDS011;848;48.354;10.064;2022-11-14T11:45:04;10.80;;;2.53;;
1701;SDS011;848;48.354;10.064;2022-11-14T11:47:41;10.77;;;2.20;;
1701;SDS011;848;48.354;10.064;2022-11-14T11:50:15;9.60;;;1.80;;
1701;SDS011;848;48.354;10.064;2022-11-14T11:52:46;10.38;;;2.38;;
1701;SDS011;848;48.354;10.064;2022-11-14T11:55:17;10.35;;;2.10;;
1701;SDS011;848;48.354;10.064;2022-11-14T11:57:52;10.30;;;2.22;;
1701;SDS011;848;48.354;10.064;2022-11-14T12:00:26;10.35;;;2.50;;
1701;SDS011;848;48.354;10.064;2022-11-14T12:02:54;10.30;;;2.15;;
1701;SDS011;848;48.354;10.064;2022-11-14T12:05:24;10.05;;;2.20;;
1701;SDS011;848;48.354;10.064;2022-11-14T12:07:55;9.95;;;2.08;;
1701;SDS011;848;48.354;10.064;2022-11-14T12:10:29;9.95;;;2.20;;
1701;SDS011;848;48.354;10.064;2022-11-14T12:16:16;10.60;;;2.10;;
1701;SDS011;848;48.354;10.064;2022-11-14T12:22:05;11.40;;;2.05;;
1701;SDS011;848;48.354;10.064;2022-11-14T12:24:50;10.43;;;1.70;;
1701;SDS011;848;48.354;10.064;2022-11-14T12:27:44;9.23;;;1.42;;
1701;SDS011;848;48.354;10.064;2022-11-14T12:30:22;10.50;;;1.98;;
1701;SDS011;848;48.354;10.064;2022-11-14T12:32:50;10.55;;;2.60;;
1701;SDS011;848;48.354;10.064;2022-11-14T12:35:22;10.30;;;1.85;;
1701;SDS011;848;48.354;10.064;2022-11-14T12:37:52;10.20;;;2.00;;
1701;SDS011;848;48.354;10.064;2022-11-14T12:40:22;9.80;;;1.55;;
1701;SDS011;848;48.354;10.064;2022-11-14T12:42:52;9.27;;;1.60;;
1701;SDS011;848;48.354;10.064;2022-11-14T12:48:28;9.70;;;1.67;;
1701;SDS011;848;48.354;10.064;2022-11-14T12:50:57;9.35;;;1.58;;
1701;SDS011;848;48.354;10.064;2022-11-14T12:53:37;9.15;;;1.10;;
1701;SDS011;848;48.354;10.064;2022-11-14T12:56:11;10.90;;;1.40;;
1701;SDS011;848;48.354;10.064;2022-11-14T12:59:05;9.20;;;1.20;;
1701;SDS011;848;48.354;10.064;2022-11-14T13:01:49;9.45;;;1.20;;
1701;SDS011;848;48.354;10.064;2022-11-14T13:04:34;9.48;;;1.10;;
1701;SDS011;848;48.354;10.064;2022-11-14T13:07:18;8.80;;;1.15;;
1701;SDS011;848;48.354;10.064;2022-11-14T13:09:57;8.70;;;0.82;;
1701;SDS011;848;48.354;10.064;2022-11-14T13:12:55;9.18;;;1.52;;
1701;SDS011;848;48.354;10.064;2022-11-14T13:15:46;8.65;;;1.02;;
1701;SDS011;848;48.354;10.064;2022-11-14T13:18:33;9.40;;;1.55;;
1701;SDS011;848;48.354;10.064;2022-11-14T13:21:20;12.20;;;2.03;;
1701;SDS011;848;48.354;10.064;2022-11-14T13:24:06;9.60;;;1.15;;
1701;SDS011;848;48.354;10.064;2022-11-14T13:26:34;10.20;;;1.42;;
1701;SDS011;848;48.354;10.064;2022-11-14T13:29:05;11.63;;;1.50;;
1701;SDS011;848;48.354;10.064;2022-11-14T13:31:46;11.35;;;1.90;;
1701;SDS011;848;48.354;10.064;2022-11-14T13:34:34;9.30;;;1.40;;
1701;SDS011;848;48.354;10.064;2022-11-14T13:37:09;11.90;;;1.70;;
1701;SDS011;848;48.354;10.064;2022-11-14T13:39:51;13.00;;;2.88;;
1701;SDS011;848;48.354;10.064;2022-11-14T13:42:29;10.38;;;1.17;;
1701;SDS011;848;48.354;10.064;2022-11-14T13:48:35;19.90;;;11.85;;
1701;SDS011;848;48.354;10.064;2022-11-14T13:51:20;15.15;;;2.25;;
1701;SDS011;848;48.354;10.064;2022-11-14T13:53:50;11.25;;;3.45;;
1701;SDS011;848;48.354;10.064;2022-11-14T13:56:23;8.60;;;1.17;;
1701;SDS011;848;48.354;10.064;2022-11-14T14:02:18;8.73;;;1.00;;
1701;SDS011;848;48.354;10.064;2022-11-14T14:05:02;9.88;;;1.20;;
1701;SDS011;848;48.354;10.064;2022-11-14T14:07:46;9.73;;;1.45;;
1701;SDS011;848;48.354;10.064;2022-11-14T14:10:24;8.68;;;1.00;;
1701;SDS011;848;48.354;10.064;2022-11-14T14:12:58;10.25;;;1.20;;
1701;SDS011;848;48.354;10.064;2022-11-14T14:15:36;8.98;;;0.80;;
1701;SDS011;848;48.354;10.064;2022-11-14T14:18:13;8.73;;;1.10;;
1701;SDS011;848;48.354;10.064;2022-11-14T14:20:50;9.30;;;1.70;;
1701;SDS011;848;48.354;10.064;2022-11-14T14:23:30;11.57;;;2.38;;
1701;SDS011;848;48.354;10.064;2022-11-14T14:26:04;10.60;;;1.30;;
1701;SDS011;848;48.354;10.064;2022-11-14T14:28:42;12.68;;;2.55;;
1701;SDS011;848;48.354;10.064;2022-11-14T14:31:18;10.40;;;2.35;;
1701;SDS011;848;48.354;10.064;2022-11-14T14:33:47;12.55;;;1.70;;
1701;SDS011;848;48.354;10.064;2022-11-14T14:36:19;10.25;;;1.35;;
1701;SDS011;848;48.354;10.064;2022-11-14T14:38:49;9.52;;;1.40;;
1701;SDS011;848;48.354;10.064;2022-11-14T14:41:17;8.55;;;1.00;;
1701;SDS011;848;48.354;10.064;2022-11-14T14:43:49;11.15;;;1.10;;
1701;SDS011;848;48.354;10.064;2022-11-14T14:46:28;8.98;;;0.85;;
1701;SDS011;848;48.354;10.064;2022-11-14T14:48:57;10.50;;;1.40;;
1701;SDS011;848;48.354;10.064;2022-11-14T14:51:30;9.23;;;0.80;;
1701;SDS011;848;48.354;10.064;2022-11-14T14:53:59;11.77;;;1.63;;
1701;SDS011;848;48.354;10.064;2022-11-14T14:56:27;9.57;;;1.17;;
1701;SDS011;848;48.354;10.064;2022-11-14T14:58:54;10.18;;;2.03;;
1701;SDS011;848;48.354;10.064;2022-11-14T15:01:22;12.93;;;2.75;;
1701;SDS011;848;48.354;10.064;2022-11-14T15:03:55;10.00;;;1.95;;
1701;SDS011;848;48.354;10.064;2022-11-14T15:06:26;10.63;;;2.10;;
1701;SDS011;848;48.354;10.064;2022-11-14T15:08:55;10.20;;;1.88;;
1701;SDS011;848;48.354;10.064;2022-11-14T15:11:26;9.70;;;1.90;;
1701;SDS011;848;48.354;10.064;2022-11-14T15:13:56;11.95;;;2.85;;
1701;SDS011;848;48.354;10.064;2022-11-14T15:16:24;12.05;;;2.00;;
1701;SDS011;848;48.354;10.064;2022-11-14T15:18:53;9.18;;;1.40;;
1701;SDS011;848;48.354;10.064;2022-11-14T15:21:23;10.85;;;2.10;;
1701;SDS011;848;48.354;10.064;2022-11-14T15:23:57;13.18;;;2.08;;
1701;SDS011;848;48.354;10.064;2022-11-14T15:26:27;13.60;;;3.30;;
1701;SDS011;848;48.354;10.064;2022-11-14T15:29:05;11.05;;;2.53;;
1701;SDS011;848;48.354;10.064;2022-11-14T15:31:42;15.68;;;3.78;;
1701;SDS011;848;48.354;10.064;2022-11-14T15:34:22;12.15;;;4.00;;
1701;SDS011;848;48.354;10.064;2022-11-14T15:37:07;10.70;;;2.55;;